createdAt,value
2018-11-07T01:51:30.815Z,20.47
2018-11-07T01:54:00.234Z,19.87
2018-11-07T01:56:29.996Z,21.43
2018-11-07T01:59:00.929Z,21.12
2018-11-07T02:01:30.623Z,24.63
2018-11-07T02:04:00.198Z,23.07
2018-11-07T02:06:30.119Z,23.67
2018-11-07T02:08:59.734Z,21.83
2018-11-07T02:11:29.279Z,22.57
2018-11-07T02:13:58.796Z,24.77
2018-11-07T02:16:28.208Z,23.93
2018-11-07T02:18:57.617Z,24.20
2018-11-07T02:21:27.055Z,24.90
2018-11-07T02:23:56.616Z,22.63
2018-11-07T02:26:26.240Z,22.97
2018-11-07T02:28:55.771Z,20.60
2018-11-07T02:31:25.364Z,22.07
2018-11-07T02:33:54.916Z,20.63
2018-11-07T02:36:30.930Z,20.90
2018-11-07T02:39:00.345Z,22.60
2018-11-07T02:41:29.879Z,21.27
2018-11-07T02:43:59.288Z,21.37
2018-11-07T02:46:28.875Z,22.13
2018-11-07T02:48:58.319Z,23.20
2018-11-07T02:51:27.885Z,23.73
2018-11-07T02:53:57.416Z,23.37
2018-11-07T02:56:26.789Z,23.67
2018-11-07T02:58:56.555Z,24.90
2018-11-07T03:01:26.202Z,25.12
2018-11-07T03:03:55.633Z,25.00
2018-11-07T03:06:25.335Z,23.77
2018-11-07T03:08:54.816Z,25.50
2018-11-07T03:11:24.387Z,23.90
2018-11-07T03:13:53.818Z,23.15
2018-11-07T03:16:23.329Z,24.10
2018-11-07T03:18:52.712Z,24.13
2018-11-07T03:21:22.283Z,23.40
2018-11-07T03:23:51.858Z,24.10
2018-11-07T03:26:21.336Z,23.57
2018-11-07T03:28:50.756Z,25.57
2018-11-07T03:31:20.334Z,26.33
2018-11-07T03:33:49.949Z,27.27
2018-11-07T03:36:19.538Z,26.57
2018-11-07T03:38:49.243Z,26.75
2018-11-07T03:41:18.824Z,25.97
2018-11-07T03:43:49.100Z,27.67
2018-11-07T03:46:18.959Z,27.90
2018-11-07T03:48:49.232Z,27.13
2018-11-07T03:51:18.705Z,26.87
2018-11-07T03:53:49.023Z,29.47
2018-11-07T03:56:18.499Z,28.60
2018-11-07T03:58:48.979Z,29.60
2018-11-07T04:01:18.456Z,27.27
2018-11-07T04:03:49.018Z,27.67
2018-11-07T04:06:18.500Z,28.83
2018-11-07T04:08:48.898Z,26.87
2018-11-07T04:11:18.334Z,27.00
2018-11-07T04:13:47.773Z,30.27
2018-11-07T04:16:17.617Z,29.70
2018-11-07T04:18:47.030Z,29.13
2018-11-07T04:21:16.475Z,30.37
2018-11-07T04:23:51.911Z,29.27
2018-11-07T04:26:21.363Z,32.37
2018-11-07T04:28:50.930Z,30.73
2018-11-07T04:31:20.529Z,29.50
2018-11-07T04:33:50.233Z,29.23
2018-11-07T04:36:19.815Z,31.43
2018-11-07T04:38:49.390Z,31.10
2018-11-07T04:41:19.006Z,29.23
2018-11-07T04:43:49.225Z,30.83
2018-11-07T04:46:18.928Z,31.67
2018-11-07T04:48:49.171Z,31.70
2018-11-07T04:51:18.776Z,32.10
2018-11-07T04:53:49.360Z,29.90
2018-11-07T04:56:18.835Z,28.83
2018-11-07T04:58:49.271Z,29.60
2018-11-07T05:01:18.886Z,30.70
2018-11-07T05:03:49.323Z,31.20
2018-11-07T05:06:18.757Z,30.30
2018-11-07T05:08:49.429Z,32.13
2018-11-07T05:11:18.803Z,29.63
2018-11-07T05:13:49.407Z,30.10
2018-11-07T05:16:19.028Z,30.70
2018-11-07T05:18:49.403Z,29.00
2018-11-07T05:21:18.841Z,28.13
2018-11-07T05:23:49.451Z,29.48
2018-11-07T05:26:18.985Z,29.20
2018-11-07T05:28:49.405Z,29.18
2018-11-07T05:31:19.027Z,29.53
2018-11-07T05:33:49.386Z,29.83
2018-11-07T05:36:19.008Z,30.70
2018-11-07T05:38:49.537Z,29.70
2018-11-07T05:41:19.104Z,29.93
2018-11-07T05:43:49.456Z,32.10
2018-11-07T05:46:19.110Z,30.30
2018-11-07T05:48:49.530Z,31.23
2018-11-07T05:51:19.187Z,31.03
2018-11-07T05:53:49.448Z,30.17
2018-11-07T05:56:18.875Z,30.10
2018-11-07T05:58:49.455Z,30.60
2018-11-07T06:01:19.328Z,30.07
2018-11-07T06:03:49.647Z,31.70
2018-11-07T06:06:19.327Z,29.83
2018-11-07T06:08:49.494Z,31.57
2018-11-07T06:11:19.256Z,32.77
2018-11-07T06:13:49.513Z,30.87
2018-11-07T06:16:19.141Z,34.10
2018-11-07T06:18:49.492Z,33.77
2018-11-07T06:21:19.300Z,32.03
2018-11-07T06:23:49.515Z,32.43
2018-11-07T06:26:19.065Z,36.07
2018-11-07T06:28:49.572Z,32.40
2018-11-07T06:31:19.176Z,32.63
2018-11-07T06:33:49.647Z,32.28
2018-11-07T06:36:19.208Z,35.27
2018-11-07T06:38:49.565Z,34.23
2018-11-07T06:41:18.995Z,35.80
2018-11-07T06:43:49.440Z,36.47
2018-11-07T06:46:18.868Z,35.67
2018-11-07T06:48:49.605Z,34.13
2018-11-07T06:51:19.213Z,37.43
2018-11-07T06:53:49.613Z,33.73
2018-11-07T06:56:19.168Z,34.60
2018-11-07T06:58:49.674Z,34.40
2018-11-07T07:01:19.305Z,34.93
2018-11-07T07:03:49.624Z,33.30
2018-11-07T07:06:19.231Z,34.00
2018-11-07T07:08:49.647Z,34.80
2018-11-07T07:11:19.321Z,34.57
2018-11-07T07:13:49.747Z,33.03
2018-11-07T07:16:19.270Z,34.13
2018-11-07T07:18:49.660Z,34.00
2018-11-07T07:21:19.452Z,35.13
2018-11-07T07:23:49.626Z,35.07
2018-11-07T07:26:19.284Z,32.23
2018-11-07T07:28:49.832Z,34.57
2018-11-07T07:31:19.299Z,34.00
2018-11-07T07:33:49.777Z,33.20
2018-11-07T07:36:19.219Z,34.07
2018-11-07T07:38:49.751Z,33.73
2018-11-07T07:41:19.267Z,33.10
2018-11-07T07:43:50.010Z,35.03
2018-11-07T07:46:19.617Z,32.53
2018-11-07T07:48:49.927Z,33.43
2018-11-07T07:51:19.617Z,33.43
2018-11-07T07:53:49.761Z,33.73
2018-11-07T07:56:19.522Z,34.47
2018-11-07T07:58:49.835Z,32.87
2018-11-07T08:01:19.521Z,35.17
2018-11-07T08:03:49.822Z,36.03
2018-11-07T08:06:19.497Z,36.87
2018-11-07T08:08:49.927Z,35.00
2018-11-07T08:11:19.557Z,35.77
2018-11-07T08:13:50.097Z,34.27
2018-11-07T08:16:19.688Z,33.07
2018-11-07T08:18:50.095Z,36.05
2018-11-07T08:21:19.899Z,34.30
2018-11-07T08:23:49.939Z,35.27
2018-11-07T08:26:19.681Z,35.60
2018-11-07T08:28:49.933Z,35.37
2018-11-07T08:31:19.635Z,36.40
2018-11-07T08:33:50.257Z,36.45
2018-11-07T08:36:20.040Z,35.50
2018-11-07T08:38:50.747Z,36.93
2018-11-07T08:41:20.436Z,34.53
2018-11-07T08:43:50.276Z,35.10
2018-11-07T08:46:20.475Z,38.70
2018-11-07T08:48:49.980Z,35.90
2018-11-07T08:51:19.527Z,39.13
2018-11-07T08:53:50.146Z,38.65
2018-11-07T08:56:19.672Z,38.43
2018-11-07T08:58:49.949Z,40.07
2018-11-07T09:01:19.573Z,37.30
2018-11-07T09:03:50.007Z,37.63
2018-11-07T09:06:20.104Z,37.10
2018-11-07T09:08:50.143Z,38.33
2018-11-07T09:11:19.847Z,37.03
2018-11-07T09:13:50.066Z,37.88
2018-11-07T09:16:19.572Z,35.13
2018-11-07T09:18:50.114Z,36.60
2018-11-07T09:21:19.545Z,34.47
2018-11-07T09:23:50.300Z,34.47
2018-11-07T09:26:20.018Z,34.63
2018-11-07T09:28:50.372Z,35.73
2018-11-07T09:31:19.948Z,34.90
2018-11-07T09:33:50.126Z,35.90
2018-11-07T09:36:19.763Z,35.27
2018-11-07T09:38:50.120Z,36.03
2018-11-07T09:41:19.955Z,37.50
2018-11-07T09:43:50.156Z,35.80
2018-11-07T09:46:19.680Z,38.03
2018-11-07T09:48:50.174Z,37.60
2018-11-07T09:51:19.813Z,37.30
2018-11-07T09:53:50.380Z,36.90
2018-11-07T09:56:19.874Z,36.07
2018-11-07T09:58:50.228Z,38.07
2018-11-07T10:01:19.931Z,36.20
2018-11-07T10:03:50.522Z,37.60
2018-11-07T10:06:20.236Z,36.67
2018-11-07T10:08:50.201Z,34.90
2018-11-07T10:11:19.943Z,34.63
2018-11-07T10:13:50.256Z,34.37
2018-11-07T10:16:19.858Z,37.07
2018-11-07T10:18:50.310Z,39.80
2018-11-07T10:21:19.836Z,36.67
2018-11-07T10:23:50.398Z,36.20
2018-11-07T10:26:20.061Z,36.87
2018-11-07T10:28:50.464Z,36.57
2018-11-07T10:31:20.056Z,36.23
2018-11-07T10:33:50.331Z,34.50
2018-11-07T10:36:19.951Z,36.43
2018-11-07T10:38:50.404Z,35.95
2018-11-07T10:41:19.939Z,34.90
2018-11-07T10:43:50.486Z,35.80
2018-11-07T10:46:20.066Z,34.77
2018-11-07T10:48:50.541Z,36.33
2018-11-07T10:51:20.327Z,34.37
2018-11-07T10:53:50.375Z,34.97
2018-11-07T10:56:19.847Z,35.40
2018-11-07T10:58:50.414Z,35.70
2018-11-07T11:01:25.290Z,34.60
2018-11-07T11:03:55.290Z,33.33
2018-11-07T11:06:25.420Z,35.70
2018-11-07T11:08:54.995Z,35.30
2018-11-07T11:11:24.830Z,38.27
2018-11-07T11:13:54.454Z,37.87
2018-11-07T11:16:24.210Z,35.00
2018-11-07T11:18:53.912Z,34.07
2018-11-07T11:21:23.705Z,34.90
2018-11-07T11:23:53.321Z,34.47
2018-11-07T11:26:22.899Z,35.73
2018-11-07T11:28:52.610Z,34.57
2018-11-07T11:31:22.239Z,34.07
2018-11-07T11:33:51.862Z,34.87
2018-11-07T11:36:21.339Z,34.17
2018-11-07T11:38:51.954Z,35.83
2018-11-07T11:41:21.461Z,35.90
2018-11-07T11:43:50.985Z,38.30
2018-11-07T11:46:20.692Z,38.20
2018-11-07T11:48:50.684Z,36.87
2018-11-07T11:51:20.378Z,37.83
2018-11-07T11:53:50.758Z,36.80
2018-11-07T11:56:20.487Z,38.20
2018-11-07T11:58:50.777Z,36.63
2018-11-07T12:01:20.337Z,37.47
2018-11-07T12:03:50.501Z,38.53
2018-11-07T12:06:20.279Z,38.60
2018-11-07T12:08:50.995Z,37.93
2018-11-07T12:11:20.547Z,37.80
2018-11-07T12:13:50.866Z,39.20
2018-11-07T12:16:21.041Z,37.13
2018-11-07T12:18:50.624Z,38.85
2018-11-07T12:21:20.177Z,36.93
2018-11-07T12:23:50.679Z,38.23
2018-11-07T12:26:20.201Z,38.33
2018-11-07T12:28:50.646Z,40.80
2018-11-07T12:31:20.323Z,38.70
2018-11-07T12:33:50.853Z,38.07
2018-11-07T12:36:20.659Z,39.77
2018-11-07T12:38:50.539Z,36.17
2018-11-07T12:41:20.094Z,38.40
2018-11-07T12:43:50.684Z,37.30
2018-11-07T12:46:20.204Z,40.13
2018-11-07T12:48:50.760Z,37.58
2018-11-07T12:51:20.338Z,38.73
2018-11-07T12:53:50.859Z,36.73
2018-11-07T12:58:52.427Z,38.83
2018-11-07T13:01:21.992Z,37.50
2018-11-07T13:03:51.627Z,38.27
2018-11-07T13:06:21.241Z,38.30
2018-11-07T13:08:50.774Z,37.47
2018-11-07T13:11:20.591Z,38.60
2018-11-07T13:13:50.893Z,39.55
2018-11-07T13:16:20.841Z,38.53
2018-11-07T13:18:50.812Z,39.80
2018-11-07T13:21:20.496Z,41.43
2018-11-07T13:23:50.767Z,41.97
2018-11-07T13:26:20.283Z,41.63
2018-11-07T13:28:50.945Z,40.00
2018-11-07T13:31:20.404Z,37.83
2018-11-07T13:33:50.787Z,41.47
2018-11-07T13:36:20.295Z,43.27
2018-11-07T13:38:50.996Z,41.03
2018-11-07T13:41:20.396Z,41.47
2018-11-07T13:43:50.903Z,40.70
2018-11-07T13:46:20.585Z,39.93
2018-11-07T13:48:50.855Z,38.70
2018-11-07T13:51:20.514Z,37.57
2018-11-07T13:53:50.920Z,37.90
2018-11-07T13:56:20.452Z,38.03
2018-11-07T13:58:50.885Z,37.93
2018-11-07T14:01:20.589Z,39.77
2018-11-07T14:03:50.898Z,39.38
2018-11-07T14:06:20.604Z,39.10
2018-11-07T14:08:50.931Z,40.00
2018-11-07T14:11:20.581Z,41.30
2018-11-07T14:13:50.921Z,41.63
2018-11-07T14:16:20.438Z,40.40
2018-11-07T14:18:50.918Z,39.43
2018-11-07T14:21:20.472Z,40.03
2018-11-07T14:23:51.003Z,42.30
2018-11-07T14:26:20.499Z,43.27
2018-11-07T14:28:50.966Z,42.83
2018-11-07T14:31:20.664Z,42.63
2018-11-07T14:33:51.028Z,44.77
2018-11-07T14:36:20.735Z,43.00
2018-11-07T14:38:51.080Z,42.80
2018-11-07T14:41:20.581Z,42.93
2018-11-07T14:43:50.996Z,43.63
2018-11-07T14:46:20.569Z,43.90
2018-11-07T14:48:50.979Z,41.53
2018-11-07T14:51:20.610Z,43.67
2018-11-07T14:53:51.014Z,43.53
2018-11-07T14:56:20.535Z,44.30
2018-11-07T14:58:50.991Z,43.40
2018-11-07T15:01:20.598Z,44.73
2018-11-07T15:03:51.078Z,42.50
2018-11-07T15:06:20.596Z,42.80
2018-11-07T15:08:50.949Z,42.40
2018-11-07T15:11:20.532Z,42.50
2018-11-07T15:13:51.136Z,41.93
2018-11-07T15:16:20.833Z,42.97
2018-11-07T15:18:51.087Z,43.60
2018-11-07T15:21:20.785Z,43.50
2018-11-07T15:23:51.192Z,43.75
2018-11-07T15:26:20.960Z,43.10
2018-11-07T15:28:51.124Z,45.48
2018-11-07T15:31:20.833Z,45.57
2018-11-07T15:33:51.109Z,46.02
2018-11-07T15:36:20.758Z,46.13
2018-11-07T15:38:51.203Z,44.93
2018-11-07T15:41:20.822Z,45.40
2018-11-07T15:43:51.086Z,46.57
2018-11-07T15:46:20.735Z,46.50
2018-11-07T15:48:51.138Z,44.97
2018-11-07T15:51:25.008Z,46.30
2018-11-07T15:53:54.812Z,44.93
2018-11-07T15:56:24.448Z,44.73
2018-11-07T15:58:54.188Z,46.73
2018-11-07T16:01:26.194Z,46.37
2018-11-07T16:03:57.676Z,48.28
2018-11-07T16:06:27.708Z,45.33
2018-11-07T16:08:59.186Z,47.97
2018-11-07T16:11:30.176Z,46.23
2018-11-07T16:13:59.903Z,47.00
2018-11-07T16:16:29.425Z,48.33
2018-11-07T16:18:59.087Z,46.25
2018-11-07T16:21:33.091Z,47.07
2018-11-07T16:24:02.853Z,47.73
2018-11-07T16:26:32.551Z,46.70
2018-11-07T16:29:02.161Z,48.50
2018-11-07T16:31:31.675Z,48.10
2018-11-07T16:34:01.219Z,47.67
2018-11-07T16:36:30.923Z,49.13
2018-11-07T16:39:00.669Z,47.05
2018-11-07T16:41:30.417Z,47.13
2018-11-07T16:44:00.002Z,52.57
2018-11-07T16:46:29.743Z,50.07
2018-11-07T16:48:59.391Z,47.03
2018-11-07T16:51:29.053Z,48.33
2018-11-07T16:53:58.722Z,47.47
2018-11-07T16:56:28.223Z,48.37
2018-11-07T16:58:57.955Z,48.23
2018-11-07T17:01:27.632Z,48.93
2018-11-07T17:03:57.182Z,50.28
2018-11-07T17:06:26.794Z,46.03
2018-11-07T17:08:56.747Z,48.10
2018-11-07T17:11:26.370Z,47.60
2018-11-07T17:13:56.047Z,47.93
2018-11-07T17:16:25.705Z,47.50
2018-11-07T17:18:55.493Z,47.27
2018-11-07T17:21:25.667Z,47.90
2018-11-07T17:23:55.489Z,46.67
2018-11-07T17:26:25.176Z,48.10
2018-11-07T17:28:54.683Z,47.73
2018-11-07T17:31:24.369Z,48.37
2018-11-07T17:33:54.037Z,48.30
2018-11-07T17:36:23.557Z,46.80
2018-11-07T17:38:53.011Z,49.03
2018-11-07T17:41:22.627Z,44.90
2018-11-07T17:43:52.203Z,47.67
2018-11-07T17:46:21.903Z,48.87
2018-11-07T17:48:51.653Z,48.70
2018-11-07T17:51:21.135Z,48.83
2018-11-07T17:53:51.442Z,48.37
2018-11-07T17:56:21.364Z,46.87
2018-11-07T17:58:51.595Z,49.07
2018-11-07T18:01:21.305Z,47.20
2018-11-07T18:03:51.548Z,47.47
2018-11-07T18:06:21.060Z,47.93
2018-11-07T18:08:51.580Z,46.40
2018-11-07T18:11:21.091Z,49.70
2018-11-07T18:13:51.561Z,49.73
2018-11-07T18:16:21.964Z,49.57
2018-11-07T18:18:51.533Z,47.67
2018-11-07T18:21:21.126Z,46.47
2018-11-07T18:23:50.811Z,46.83
2018-11-07T18:26:20.542Z,46.73
2018-11-07T18:28:50.122Z,44.53
2018-11-07T18:31:19.940Z,45.77
2018-11-07T18:33:49.528Z,48.03
2018-11-07T18:36:19.021Z,47.00
2018-11-07T18:38:49.567Z,48.00
2018-11-07T18:41:19.302Z,47.33
2018-11-07T18:43:48.895Z,49.50
2018-11-07T18:46:18.891Z,47.63
2018-11-07T18:48:48.646Z,47.73
2018-11-07T18:51:18.438Z,47.53
2018-11-07T18:53:48.113Z,47.13
2018-11-07T18:56:17.846Z,47.97
2018-11-07T18:58:47.536Z,48.37
2018-11-07T19:01:18.123Z,47.25
2018-11-07T19:03:47.943Z,47.63
2018-11-07T19:06:18.309Z,47.47
2018-11-07T19:08:48.160Z,48.45
2018-11-07T19:11:17.962Z,50.23
2018-11-07T19:13:47.673Z,48.83
2018-11-07T19:16:17.377Z,51.73
2018-11-07T19:18:47.210Z,49.77
2018-11-07T19:21:16.992Z,50.80
2018-11-07T19:23:46.737Z,50.83
2018-11-07T19:26:16.492Z,51.23
2018-11-07T19:28:46.204Z,49.67
2018-11-07T19:31:16.266Z,46.70
2018-11-07T19:33:46.085Z,48.57
2018-11-07T19:36:18.722Z,51.10
2018-11-07T19:38:48.851Z,51.13
2018-11-07T19:41:24.227Z,51.23
2018-11-07T19:43:54.067Z,49.25
2018-11-07T19:46:24.160Z,50.27
2018-11-07T19:48:53.910Z,49.60
2018-11-07T19:51:23.651Z,50.67
2018-11-07T19:53:53.367Z,50.87
2018-11-07T19:56:23.631Z,49.90
2018-11-07T19:58:53.511Z,50.60
2018-11-07T20:01:23.367Z,50.90
2018-11-07T20:03:53.195Z,52.43
2018-11-07T20:06:23.015Z,53.77
2018-11-07T20:08:52.567Z,52.90
2018-11-07T20:11:22.760Z,53.57
2018-11-07T20:13:52.543Z,53.27
2018-11-07T20:16:22.334Z,51.97
2018-11-07T20:18:52.402Z,54.83
2018-11-07T20:21:22.160Z,52.73
2018-11-07T20:23:52.866Z,53.50
2018-11-07T20:26:23.072Z,53.83
2018-11-07T20:28:52.726Z,55.73
2018-11-07T20:31:22.260Z,55.87
2018-11-07T20:33:51.995Z,53.87
2018-11-07T20:36:21.534Z,51.03
2018-11-07T20:38:51.045Z,51.27
2018-11-07T20:41:20.798Z,52.80
2018-11-07T20:43:50.588Z,52.10
2018-11-07T20:46:20.369Z,49.53
2018-11-07T20:48:50.142Z,51.53
2018-11-07T20:51:19.876Z,49.73
2018-11-07T20:53:49.540Z,52.90
2018-11-07T20:56:19.262Z,52.47
2018-11-07T20:58:48.975Z,51.17
2018-11-07T21:01:18.685Z,52.30
2018-11-07T21:03:48.395Z,51.03
2018-11-07T21:06:17.951Z,53.23
2018-11-07T21:08:47.726Z,52.83
2018-11-07T21:11:17.564Z,51.83
2018-11-07T21:13:47.113Z,52.25
2018-11-07T21:16:16.785Z,52.17
2018-11-07T21:18:46.528Z,51.77
2018-11-07T21:21:16.072Z,51.83
2018-11-07T21:23:45.706Z,52.93
2018-11-07T21:26:15.336Z,51.43
2018-11-07T21:28:45.183Z,50.33
2018-11-07T21:31:15.168Z,51.23
2018-11-07T21:33:44.756Z,53.90
2018-11-07T21:36:14.455Z,52.43
2018-11-07T21:38:44.324Z,51.40
2018-11-07T21:41:14.029Z,52.93
2018-11-07T21:43:44.173Z,50.63
2018-11-07T21:46:13.905Z,50.92
2018-11-07T21:48:43.654Z,51.97
2018-11-07T21:51:13.373Z,51.23
2018-11-07T21:53:43.159Z,48.97
2018-11-07T21:56:12.873Z,47.83
2018-11-07T21:58:42.595Z,48.00
2018-11-07T22:01:12.392Z,45.00
2018-11-07T22:03:42.082Z,43.35
2018-11-07T22:06:12.050Z,44.40
2018-11-07T22:08:41.915Z,43.97
2018-11-07T22:11:11.828Z,44.23
2018-11-07T22:13:41.628Z,45.80
2018-11-07T22:16:11.412Z,43.70
2018-11-07T22:18:41.085Z,44.38
2018-11-07T22:21:10.789Z,42.93
2018-11-07T22:23:40.727Z,41.20
2018-11-07T22:26:10.692Z,45.60
2018-11-07T22:28:40.287Z,44.30
2018-11-07T22:31:09.873Z,43.93
2018-11-07T22:33:39.641Z,45.13
2018-11-07T22:36:09.428Z,45.70
2018-11-07T22:38:39.068Z,43.80
2018-11-07T22:41:08.719Z,43.67
2018-11-07T22:43:38.285Z,44.43
2018-11-07T22:46:08.210Z,44.13
2018-11-07T22:48:37.909Z,40.67
2018-11-07T22:51:07.665Z,43.60
2018-11-07T22:53:37.317Z,43.47
2018-11-07T22:56:07.580Z,40.37
2018-11-07T22:58:37.303Z,39.97
2018-11-07T23:01:12.322Z,38.20
2018-11-07T23:03:42.102Z,37.50
2018-11-07T23:06:11.729Z,37.03
2018-11-07T23:08:41.290Z,35.45
2018-11-07T23:11:10.811Z,34.90
2018-11-07T23:13:40.439Z,34.57
2018-11-07T23:16:10.234Z,33.23
2018-11-07T23:18:39.862Z,34.17
2018-11-07T23:21:09.623Z,32.17
2018-11-07T23:23:39.371Z,30.73
2018-11-07T23:26:09.070Z,32.50
2018-11-07T23:28:38.708Z,33.43
2018-11-07T23:31:08.363Z,31.90
2018-11-07T23:33:38.107Z,32.03
2018-11-07T23:36:07.872Z,29.47
2018-11-07T23:38:37.493Z,32.20
2018-11-07T23:41:07.320Z,32.43
2018-11-07T23:43:37.599Z,33.60
2018-11-07T23:46:07.311Z,32.47
2018-11-07T23:48:37.144Z,31.33
2018-11-07T23:51:06.739Z,32.60
2018-11-07T23:53:37.006Z,30.37
2018-11-07T23:56:06.709Z,30.50
2018-11-07T23:58:36.974Z,31.03
